sensor_id;sensor_type;location;lat;lon;timestamp;pressure;altitude;pressure_sealevel;temperature
62930;BMP280;49036;42.782;23.108;2023-02-15T00:01:43;95118.31;;;-1.28
62930;BMP280;49036;42.782;23.108;2023-02-15T00:04:09;95112.13;;;-1.29
62930;BMP280;49036;42.782;23.108;2023-02-15T00:06:35;95111.28;;;-1.35
62930;BMP280;49036;42.782;23.108;2023-02-15T00:09:01;95113.16;;;-1.26
62930;BMP280;49036;42.782;23.108;2023-02-15T00:11:26;95117.44;;;-1.19
62930;BMP280;49036;42.782;23.108;2023-02-15T00:14:13;95115.25;;;-1.15
62930;BMP280;49036;42.782;23.108;2023-02-15T00:16:40;95111.38;;;-1.09
62930;BMP280;49036;42.782;23.108;2023-02-15T00:19:06;95101.19;;;-0.88
62930;BMP280;49036;42.782;23.108;2023-02-15T00:21:33;95109.00;;;-0.75
62930;BMP280;49036;42.782;23.108;2023-02-15T00:24:00;95106.09;;;-0.71
62930;BMP280;49036;42.782;23.108;2023-02-15T00:26:26;95104.09;;;-0.71
62930;BMP280;49036;42.782;23.108;2023-02-15T00:28:52;95107.56;;;-0.70
62930;BMP280;49036;42.782;23.108;2023-02-15T00:31:19;95100.66;;;-0.66
62930;BMP280;49036;42.782;23.108;2023-02-15T00:33:44;95105.59;;;-0.70
62930;BMP280;49036;42.782;23.108;2023-02-15T00:36:10;95098.66;;;-0.71
62930;BMP280;49036;42.782;23.108;2023-02-15T00:38:36;95089.66;;;-0.77
62930;BMP280;49036;42.782;23.108;2023-02-15T00:41:04;95108.38;;;-0.90
62930;BMP280;49036;42.782;23.108;2023-02-15T00:43:31;95100.44;;;-0.88
62930;BMP280;49036;42.782;23.108;2023-02-15T00:45:57;95115.31;;;-0.89
62930;BMP280;49036;42.782;23.108;2023-02-15T00:48:23;95112.56;;;-0.89
62930;BMP280;49036;42.782;23.108;2023-02-15T00:50:51;95107.00;;;-0.80
62930;BMP280;49036;42.782;23.108;2023-02-15T00:53:17;95113.94;;;-0.79
62930;BMP280;49036;42.782;23.108;2023-02-15T00:55:42;95119.72;;;-0.71
62930;BMP280;49036;42.782;23.108;2023-02-15T00:58:09;95103.28;;;-0.77
62930;BMP280;49036;42.782;23.108;2023-02-15T01:00:36;95111.72;;;-0.75
62930;BMP280;49036;42.782;23.108;2023-02-15T01:03:03;95116.44;;;-0.76
62930;BMP280;49036;42.782;23.108;2023-02-15T01:05:29;95111.31;;;-0.68
62930;BMP280;49036;42.782;23.108;2023-02-15T01:07:56;95109.97;;;-0.78
62930;BMP280;49036;42.782;23.108;2023-02-15T01:10:22;95116.44;;;-0.76
62930;BMP280;49036;42.782;23.108;2023-02-15T01:12:48;95109.25;;;-0.79
62930;BMP280;49036;42.782;23.108;2023-02-15T01:15:15;95103.66;;;-0.90
62930;BMP280;49036;42.782;23.108;2023-02-15T01:17:40;95108.72;;;-1.03
62930;BMP280;49036;42.782;23.108;2023-02-15T01:20:06;95111.25;;;-0.99
62930;BMP280;49036;42.782;23.108;2023-02-15T01:22:32;95107.22;;;-1.04
62930;BMP280;49036;42.782;23.108;2023-02-15T01:24:58;95106.66;;;-1.08
62930;BMP280;49036;42.782;23.108;2023-02-15T01:27:23;95104.75;;;-1.02
62930;BMP280;49036;42.782;23.108;2023-02-15T01:29:49;95090.94;;;-0.98
62930;BMP280;49036;42.782;23.108;2023-02-15T01:32:14;95089.41;;;-0.79
62930;BMP280;49036;42.782;23.108;2023-02-15T01:34:40;95103.09;;;-0.74
62930;BMP280;49036;42.782;23.108;2023-02-15T01:37:06;95092.72;;;-0.69
62930;BMP280;49036;42.782;23.108;2023-02-15T01:39:31;95095.72;;;-0.62
62930;BMP280;49036;42.782;23.108;2023-02-15T01:41:57;95098.00;;;-0.60
62930;BMP280;49036;42.782;23.108;2023-02-15T01:44:46;95104.75;;;-0.50
62930;BMP280;49036;42.782;23.108;2023-02-15T01:47:16;95087.16;;;-0.49
62930;BMP280;49036;42.782;23.108;2023-02-15T01:49:43;95096.31;;;-0.52
62930;BMP280;49036;42.782;23.108;2023-02-15T01:52:13;95089.38;;;-0.53
62930;BMP280;49036;42.782;23.108;2023-02-15T01:54:40;95091.56;;;-0.57
62930;BMP280;49036;42.782;23.108;2023-02-15T01:57:10;95096.28;;;-0.58
62930;BMP280;49036;42.782;23.108;2023-02-15T01:59:37;95092.63;;;-0.49
62930;BMP280;49036;42.782;23.108;2023-02-15T02:02:07;95093.97;;;-0.39
62930;BMP280;49036;42.782;23.108;2023-02-15T02:05:02;95091.97;;;-0.38
62930;BMP280;49036;42.782;23.108;2023-02-15T02:07:34;95082.56;;;-0.37
62930;BMP280;49036;42.782;23.108;2023-02-15T02:10:04;95093.75;;;-0.35
62930;BMP280;49036;42.782;23.108;2023-02-15T02:12:30;95086.03;;;-0.37
62930;BMP280;49036;42.782;23.108;2023-02-15T02:14:56;95088.81;;;-0.31
62930;BMP280;49036;42.782;23.108;2023-02-15T02:23:04;95097.84;;;-0.20
62930;BMP280;49036;42.782;23.108;2023-02-15T02:29:01;95108.06;;;-0.14
62930;BMP280;49036;42.782;23.108;2023-02-15T02:42:01;95090.16;;;-0.21
62930;BMP280;49036;42.782;23.108;2023-02-15T02:44:48;95101.31;;;-0.19
62930;BMP280;49036;42.782;23.108;2023-02-15T02:47:30;95105.31;;;-0.14
62930;BMP280;49036;42.782;23.108;2023-02-15T02:50:04;95096.41;;;-0.15
62930;BMP280;49036;42.782;23.108;2023-02-15T02:52:45;95098.13;;;-0.12
62930;BMP280;49036;42.782;23.108;2023-02-15T02:55:28;95105.09;;;-0.11
62930;BMP280;49036;42.782;23.108;2023-02-15T02:58:00;95100.63;;;-0.14
62930;BMP280;49036;42.782;23.108;2023-02-15T03:00:30;95100.38;;;-0.16
62930;BMP280;49036;42.782;23.108;2023-02-15T03:03:02;95103.34;;;-0.14
62930;BMP280;49036;42.782;23.108;2023-02-15T03:05:30;95099.88;;;-0.14
62930;BMP280;49036;42.782;23.108;2023-02-15T03:07:58;95096.34;;;-0.21
62930;BMP280;49036;42.782;23.108;2023-02-15T03:10:27;95103.75;;;-0.27
62930;BMP280;49036;42.782;23.108;2023-02-15T03:12:55;95106.97;;;-0.28
62930;BMP280;49036;42.782;23.108;2023-02-15T03:15:26;95102.25;;;-0.28
62930;BMP280;49036;42.782;23.108;2023-02-15T03:18:16;95105.22;;;-0.26
62930;BMP280;49036;42.782;23.108;2023-02-15T03:20:43;95106.50;;;-0.21
62930;BMP280;49036;42.782;23.108;2023-02-15T03:23:14;95103.28;;;-0.20
62930;BMP280;49036;42.782;23.108;2023-02-15T03:25:43;95112.97;;;-0.19
62930;BMP280;49036;42.782;23.108;2023-02-15T03:28:13;95118.97;;;-0.14
62930;BMP280;49036;42.782;23.108;2023-02-15T03:30:40;95118.22;;;-0.15
62930;BMP280;49036;42.782;23.108;2023-02-15T03:33:08;95116.97;;;-0.14
62930;BMP280;49036;42.782;23.108;2023-02-15T03:36:07;95123.69;;;-0.15
62930;BMP280;49036;42.782;23.108;2023-02-15T03:38:51;95112.75;;;-0.15
62930;BMP280;49036;42.782;23.108;2023-02-15T03:41:19;95116.75;;;-0.10
62930;BMP280;49036;42.782;23.108;2023-02-15T03:46:24;95111.97;;;-0.21
62930;BMP280;49036;42.782;23.108;2023-02-15T03:48:57;95113.63;;;-0.29
62930;BMP280;49036;42.782;23.108;2023-02-15T03:51:28;95108.69;;;-0.25
62930;BMP280;49036;42.782;23.108;2023-02-15T03:56:29;95116.13;;;-0.26
62930;BMP280;49036;42.782;23.108;2023-02-15T03:58:55;95109.94;;;-0.26
62930;BMP280;49036;42.782;23.108;2023-02-15T04:04:37;95125.44;;;-0.38
62930;BMP280;49036;42.782;23.108;2023-02-15T04:07:05;95107.41;;;-0.35
62930;BMP280;49036;42.782;23.108;2023-02-15T04:09:31;95122.72;;;-0.38
62930;BMP280;49036;42.782;23.108;2023-02-15T04:12:15;95108.78;;;-0.46
62930;BMP280;49036;42.782;23.108;2023-02-15T04:14:41;95116.59;;;-0.59
62930;BMP280;49036;42.782;23.108;2023-02-15T04:17:25;95127.25;;;-0.55
62930;BMP280;49036;42.782;23.108;2023-02-15T04:19:51;95126.50;;;-0.56
62930;BMP280;49036;42.782;23.108;2023-02-15T04:22:35;95127.25;;;-0.55
62930;BMP280;49036;42.782;23.108;2023-02-15T04:25:19;95140.38;;;-0.59
62930;BMP280;49036;42.782;23.108;2023-02-15T04:27:49;95132.94;;;-0.59
62930;BMP280;49036;42.782;23.108;2023-02-15T04:30:16;95139.81;;;-0.63
62930;BMP280;49036;42.782;23.108;2023-02-15T04:32:44;95143.69;;;-0.76
62930;BMP280;49036;42.782;23.108;2023-02-15T04:35:09;95140.22;;;-0.76
62930;BMP280;49036;42.782;23.108;2023-02-15T04:37:35;95143.03;;;-0.65
62930;BMP280;49036;42.782;23.108;2023-02-15T04:40:01;95147.25;;;-0.64
62930;BMP280;49036;42.782;23.108;2023-02-15T04:42:26;95148.00;;;-0.63
62930;BMP280;49036;42.782;23.108;2023-02-15T04:44:52;95154.44;;;-0.66
62930;BMP280;49036;42.782;23.108;2023-02-15T04:47:18;95173.28;;;-0.63
62930;BMP280;49036;42.782;23.108;2023-02-15T04:49:43;95158.28;;;-0.53
62930;BMP280;49036;42.782;23.108;2023-02-15T04:52:09;95153.41;;;-0.43
62930;BMP280;49036;42.782;23.108;2023-02-15T04:54:34;95153.63;;;-0.47
62930;BMP280;49036;42.782;23.108;2023-02-15T04:57:00;95156.31;;;-0.52
62930;BMP280;49036;42.782;23.108;2023-02-15T04:59:26;95151.34;;;-0.54
62930;BMP280;49036;42.782;23.108;2023-02-15T05:01:51;95151.34;;;-0.54
62930;BMP280;49036;42.782;23.108;2023-02-15T05:04:17;95162.44;;;-0.57
62930;BMP280;49036;42.782;23.108;2023-02-15T05:06:42;95171.66;;;-0.55
62930;BMP280;49036;42.782;23.108;2023-02-15T05:09:08;95163.75;;;-0.53
62930;BMP280;49036;42.782;23.108;2023-02-15T05:11:34;95162.66;;;-0.61
62930;BMP280;49036;42.782;23.108;2023-02-15T05:13:59;95170.03;;;-0.67
62930;BMP280;49036;42.782;23.108;2023-02-15T05:16:25;95173.97;;;-0.74
62930;BMP280;49036;42.782;23.108;2023-02-15T05:18:52;95178.84;;;-0.78
62930;BMP280;49036;42.782;23.108;2023-02-15T05:21:18;95178.03;;;-0.84
62930;BMP280;49036;42.782;23.108;2023-02-15T05:23:43;95175.19;;;-0.95
62930;BMP280;49036;42.782;23.108;2023-02-15T05:26:11;95183.75;;;-1.02
62930;BMP280;49036;42.782;23.108;2023-02-15T05:28:55;95191.41;;;-1.06
62930;BMP280;49036;42.782;23.108;2023-02-15T05:31:21;95193.75;;;-1.14
62930;BMP280;49036;42.782;23.108;2023-02-15T05:33:47;95196.50;;;-1.14
62930;BMP280;49036;42.782;23.108;2023-02-15T05:36:13;95193.91;;;-1.23
62930;BMP280;49036;42.782;23.108;2023-02-15T05:38:39;95196.81;;;-1.27
62930;BMP280;49036;42.782;23.108;2023-02-15T05:41:05;95201.25;;;-1.29
62930;BMP280;49036;42.782;23.108;2023-02-15T05:43:31;95197.50;;;-1.32
62930;BMP280;49036;42.782;23.108;2023-02-15T05:57:22;95201.78;;;-0.64
62930;BMP280;49036;42.782;23.108;2023-02-15T05:59:47;95201.66;;;-0.75
62930;BMP280;49036;42.782;23.108;2023-02-15T06:02:13;95203.06;;;-0.85
62930;BMP280;49036;42.782;23.108;2023-02-15T06:04:38;95206.53;;;-0.85
62930;BMP280;49036;42.782;23.108;2023-02-15T06:07:04;95215.09;;;-0.92
62930;BMP280;49036;42.782;23.108;2023-02-15T06:09:29;95204.81;;;-1.03
62930;BMP280;49036;42.782;23.108;2023-02-15T06:11:55;95210.41;;;-0.91
62930;BMP280;49036;42.782;23.108;2023-02-15T06:14:21;95213.72;;;-0.82
62930;BMP280;49036;42.782;23.108;2023-02-15T06:16:46;95210.88;;;-0.73
62930;BMP280;49036;42.782;23.108;2023-02-15T06:19:11;95206.22;;;-0.66
62930;BMP280;49036;42.782;23.108;2023-02-15T06:21:37;95224.94;;;-0.54
62930;BMP280;49036;42.782;23.108;2023-02-15T06:24:02;95210.69;;;-0.43
62930;BMP280;49036;42.782;23.108;2023-02-15T06:26:28;95206.16;;;-0.26
62930;BMP280;49036;42.782;23.108;2023-02-15T06:28:53;95212.34;;;0.01
62930;BMP280;49036;42.782;23.108;2023-02-15T06:31:19;95217.47;;;0.19
62930;BMP280;49036;42.782;23.108;2023-02-15T06:33:45;95211.41;;;0.41
62930;BMP280;49036;42.782;23.108;2023-02-15T06:36:10;95203.34;;;0.58
62930;BMP280;49036;42.782;23.108;2023-02-15T06:38:36;95205.41;;;0.69
62930;BMP280;49036;42.782;23.108;2023-02-15T06:41:01;95205.19;;;0.78
62930;BMP280;49036;42.782;23.108;2023-02-15T06:43:27;95214.69;;;0.88
62930;BMP280;49036;42.782;23.108;2023-02-15T06:45:53;95207.53;;;0.96
62930;BMP280;49036;42.782;23.108;2023-02-15T06:48:18;95211.59;;;1.17
62930;BMP280;49036;42.782;23.108;2023-02-15T06:50:44;95207.91;;;1.20
62930;BMP280;49036;42.782;23.108;2023-02-15T06:53:09;95203.19;;;1.38
62930;BMP280;49036;42.782;23.108;2023-02-15T06:55:35;95204.50;;;1.54
62930;BMP280;49036;42.782;23.108;2023-02-15T06:58:00;95211.78;;;1.85
62930;BMP280;49036;42.782;23.108;2023-02-15T07:00:25;95201.81;;;1.98
62930;BMP280;49036;42.782;23.108;2023-02-15T07:02:55;95200.84;;;2.18
62930;BMP280;49036;42.782;23.108;2023-02-15T07:05:24;95198.34;;;2.15
62930;BMP280;49036;42.782;23.108;2023-02-15T07:07:49;95198.81;;;2.02
62930;BMP280;49036;42.782;23.108;2023-02-15T07:10:15;95212.03;;;2.09
62930;BMP280;49036;42.782;23.108;2023-02-15T07:12:41;95210.25;;;2.34
62930;BMP280;49036;42.782;23.108;2023-02-15T07:15:15;95210.53;;;2.42
62930;BMP280;49036;42.782;23.108;2023-02-15T07:17:42;95219.50;;;2.14
62930;BMP280;49036;42.782;23.108;2023-02-15T07:20:13;95220.97;;;2.38
62930;BMP280;49036;42.782;23.108;2023-02-15T07:22:39;95226.47;;;2.32
62930;BMP280;49036;42.782;23.108;2023-02-15T07:25:06;95213.78;;;2.12
62930;BMP280;49036;42.782;23.108;2023-02-15T07:27:33;95217.25;;;2.13
62930;BMP280;49036;42.782;23.108;2023-02-15T07:29:59;95210.31;;;2.17
62930;BMP280;49036;42.782;23.108;2023-02-15T07:32:29;95214.25;;;2.22
62930;BMP280;49036;42.782;23.108;2023-02-15T07:34:55;95214.00;;;2.25
62930;BMP280;49036;42.782;23.108;2023-02-15T07:37:20;95211.28;;;2.14
62930;BMP280;49036;42.782;23.108;2023-02-15T07:39:46;95213.03;;;2.17
62930;BMP280;49036;42.782;23.108;2023-02-15T07:42:11;95207.31;;;2.04
62930;BMP280;49036;42.782;23.108;2023-02-15T07:44:37;95211.28;;;2.03
62930;BMP280;49036;42.782;23.108;2023-02-15T07:47:02;95213.53;;;2.16
62930;BMP280;49036;42.782;23.108;2023-02-15T07:49:28;95220.00;;;2.24
62930;BMP280;49036;42.782;23.108;2023-02-15T07:51:53;95201.81;;;2.49
62930;BMP280;49036;42.782;23.108;2023-02-15T07:54:19;95204.50;;;2.60
62930;BMP280;49036;42.782;23.108;2023-02-15T07:56:44;95209.72;;;2.69
62930;BMP280;49036;42.782;23.108;2023-02-15T07:59:09;95202.44;;;2.83
62930;BMP280;49036;42.782;23.108;2023-02-15T08:01:37;95204.22;;;2.80
62930;BMP280;49036;42.782;23.108;2023-02-15T08:04:04;95197.28;;;2.63
62930;BMP280;49036;42.782;23.108;2023-02-15T08:06:33;95195.53;;;2.54
62930;BMP280;49036;42.782;23.108;2023-02-15T08:08:59;95201.06;;;2.37
62930;BMP280;49036;42.782;23.108;2023-02-15T08:11:28;95203.06;;;2.48
62930;BMP280;49036;42.782;23.108;2023-02-15T08:18:56;95207.28;;;2.26
62930;BMP280;49036;42.782;23.108;2023-02-15T08:21:23;95209.28;;;2.37
62930;BMP280;49036;42.782;23.108;2023-02-15T08:23:49;95218.69;;;2.58
62930;BMP280;49036;42.782;23.108;2023-02-15T08:26:16;95216.72;;;2.59
62930;BMP280;49036;42.782;23.108;2023-02-15T08:28:42;95214.47;;;2.69
62930;BMP280;49036;42.782;23.108;2023-02-15T08:31:11;95215.97;;;2.64
62930;BMP280;49036;42.782;23.108;2023-02-15T08:33:39;95220.19;;;2.65
62930;BMP280;49036;42.782;23.108;2023-02-15T08:36:07;95209.50;;;2.61
62930;BMP280;49036;42.782;23.108;2023-02-15T08:38:33;95219.22;;;2.68
62930;BMP280;49036;42.782;23.108;2023-02-15T08:41:18;95226.09;;;2.92
62930;BMP280;49036;42.782;23.108;2023-02-15T08:43:46;95224.91;;;2.76
62930;BMP280;49036;42.782;23.108;2023-02-15T08:46:12;95215.13;;;2.92
62930;BMP280;49036;42.782;23.108;2023-02-15T08:48:38;95225.41;;;2.80
62930;BMP280;49036;42.782;23.108;2023-02-15T08:51:13;95222.91;;;2.76
62930;BMP280;49036;42.782;23.108;2023-02-15T08:53:40;95225.13;;;2.89
62930;BMP280;49036;42.782;23.108;2023-02-15T08:56:06;95219.81;;;3.08
62930;BMP280;49036;42.782;23.108;2023-02-15T08:58:33;95217.84;;;3.03
62930;BMP280;49036;42.782;23.108;2023-02-15T09:01:00;95221.13;;;2.90
62930;BMP280;49036;42.782;23.108;2023-02-15T09:03:28;95233.88;;;2.76
62930;BMP280;49036;42.782;23.108;2023-02-15T09:06:00;95229.94;;;2.60
62930;BMP280;49036;42.782;23.108;2023-02-15T09:08:27;95227.91;;;2.67
62930;BMP280;49036;42.782;23.108;2023-02-15T09:10:53;95227.44;;;2.74
62930;BMP280;49036;42.782;23.108;2023-02-15T09:13:18;95220.19;;;2.71
62930;BMP280;49036;42.782;23.108;2023-02-15T09:15:44;95230.38;;;2.76
62930;BMP280;49036;42.782;23.108;2023-02-15T09:18:10;95233.88;;;2.76
62930;BMP280;49036;42.782;23.108;2023-02-15T09:20:37;95226.47;;;2.49
62930;BMP280;49036;42.782;23.108;2023-02-15T09:23:03;95232.66;;;2.55
62930;BMP280;49036;42.782;23.108;2023-02-15T09:25:28;95221.44;;;2.70
62930;BMP280;49036;42.782;23.108;2023-02-15T09:27:54;95236.09;;;2.83
62930;BMP280;49036;42.782;23.108;2023-02-15T09:30:19;95230.06;;;3.02
62930;BMP280;49036;42.782;23.108;2023-02-15T09:32:45;95222.16;;;2.81
62930;BMP280;49036;42.782;23.108;2023-02-15T09:35:13;95222.16;;;2.81
62930;BMP280;49036;42.782;23.108;2023-02-15T09:37:39;95232.09;;;2.90
62930;BMP280;49036;42.782;23.108;2023-02-15T09:40:05;95235.53;;;3.02
62930;BMP280;49036;42.782;23.108;2023-02-15T09:42:43;95230.59;;;2.89
62930;BMP280;49036;42.782;23.108;2023-02-15T09:45:40;95234.06;;;3.01
62930;BMP280;49036;42.782;23.108;2023-02-15T09:48:38;95237.44;;;3.29
62930;BMP280;49036;42.782;23.108;2023-02-15T09:51:26;95235.94;;;3.34
62930;BMP280;49036;42.782;23.108;2023-02-15T09:56:45;95219.25;;;3.73
62930;BMP280;49036;42.782;23.108;2023-02-15T10:02:02;95224.22;;;3.74
62930;BMP280;49036;42.782;23.108;2023-02-15T10:04:51;95231.56;;;3.96
62930;BMP280;49036;42.782;23.108;2023-02-15T10:10:36;95226.69;;;3.78
62930;BMP280;49036;42.782;23.108;2023-02-15T10:29:12;95212.69;;;3.76
62930;BMP280;49036;42.782;23.108;2023-02-15T10:34:53;95202.44;;;3.82
62930;BMP280;49036;42.782;23.108;2023-02-15T10:37:27;95222.75;;;3.68
62930;BMP280;49036;42.782;23.108;2023-02-15T10:45:51;95186.03;;;4.07
62930;BMP280;49036;42.782;23.108;2023-02-15T10:51:08;95189.19;;;4.65
62930;BMP280;49036;42.782;23.108;2023-02-15T10:54:01;95184.53;;;4.60
62930;BMP280;49036;42.782;23.108;2023-02-15T10:57:18;95194.38;;;4.25
62930;BMP280;49036;42.782;23.108;2023-02-15T11:02:55;95181.19;;;4.18
62930;BMP280;49036;42.782;23.108;2023-02-15T11:05:38;95187.84;;;3.98
62930;BMP280;49036;42.782;23.108;2023-02-15T11:08:09;95187.59;;;4.26
62930;BMP280;49036;42.782;23.108;2023-02-15T11:13:16;95189.28;;;4.05
62930;BMP280;49036;42.782;23.108;2023-02-15T11:18:28;95174.38;;;3.95
62930;BMP280;49036;42.782;23.108;2023-02-15T11:21:01;95174.78;;;4.34
62930;BMP280;49036;42.782;23.108;2023-02-15T11:23:27;95180.69;;;4.69
62930;BMP280;49036;42.782;23.108;2023-02-15T11:26:00;95176.78;;;4.58
62930;BMP280;49036;42.782;23.108;2023-02-15T11:28:37;95173.53;;;4.36
62930;BMP280;49036;42.782;23.108;2023-02-15T11:31:18;95166.28;;;4.08
62930;BMP280;49036;42.782;23.108;2023-02-15T11:33:48;95172.69;;;3.92
62930;BMP280;49036;42.782;23.108;2023-02-15T11:36:15;95167.44;;;3.88
62930;BMP280;49036;42.782;23.108;2023-02-15T11:38:46;95164.88;;;3.66
62930;BMP280;49036;42.782;23.108;2023-02-15T11:41:19;95178.72;;;3.43
62930;BMP280;49036;42.782;23.108;2023-02-15T11:43:53;95168.47;;;3.50
62930;BMP280;49036;42.782;23.108;2023-02-15T11:46:20;95173.44;;;3.57
62930;BMP280;49036;42.782;23.108;2023-02-15T11:48:47;95163.06;;;4.10
62930;BMP280;49036;42.782;23.108;2023-02-15T11:51:16;95163.25;;;4.42
62930;BMP280;49036;42.782;23.108;2023-02-15T11:53:42;95152.41;;;4.25
62930;BMP280;49036;42.782;23.108;2023-02-15T11:56:16;95147.22;;;4.64
62930;BMP280;49036;42.782;23.108;2023-02-15T11:58:55;95144.59;;;4.97
62930;BMP280;49036;42.782;23.108;2023-02-15T12:04:28;95136.56;;;5.68
62930;BMP280;49036;42.782;23.108;2023-02-15T12:07:10;95131.19;;;5.76
62930;BMP280;49036;42.782;23.108;2023-02-15T12:09:50;95134.03;;;5.70
62930;BMP280;49036;42.782;23.108;2023-02-15T12:14:54;95135.25;;;4.86
62930;BMP280;49036;42.782;23.108;2023-02-15T12:17:32;95126.13;;;4.91
62930;BMP280;49036;42.782;23.108;2023-02-15T12:20:02;95127.94;;;4.89
62930;BMP280;49036;42.782;23.108;2023-02-15T12:22:31;95119.53;;;4.81
62930;BMP280;49036;42.782;23.108;2023-02-15T12:25:00;95119.97;;;4.85
62930;BMP280;49036;42.782;23.108;2023-02-15T12:27:32;95120.44;;;4.89
62930;BMP280;49036;42.782;23.108;2023-02-15T12:30:04;95113.38;;;4.75
62930;BMP280;49036;42.782;23.108;2023-02-15T12:32:49;95109.88;;;4.75
62930;BMP280;49036;42.782;23.108;2023-02-15T12:35:28;95114.63;;;4.74
62930;BMP280;49036;42.782;23.108;2023-02-15T12:38:01;95115.25;;;4.86
62930;BMP280;49036;42.782;23.108;2023-02-15T12:40:29;95109.88;;;4.75
62930;BMP280;49036;42.782;23.108;2023-02-15T12:42:55;95098.63;;;4.91
62930;BMP280;49036;42.782;23.108;2023-02-15T12:48:20;95100.88;;;4.74
62930;BMP280;49036;42.782;23.108;2023-02-15T12:50:48;95096.44;;;4.90
62930;BMP280;49036;42.782;23.108;2023-02-15T12:58:25;95090.06;;;4.76
62930;BMP280;49036;42.782;23.108;2023-02-15T13:01:14;95087.88;;;4.75
62930;BMP280;49036;42.782;23.108;2023-02-15T13:04:01;95088.22;;;4.84
62930;BMP280;49036;42.782;23.108;2023-02-15T13:06:31;95081.91;;;4.71
62930;BMP280;49036;42.782;23.108;2023-02-15T13:09:14;95093.66;;;4.71
62930;BMP280;49036;42.782;23.108;2023-02-15T13:11:41;95078.81;;;4.80
62930;BMP280;49036;42.782;23.108;2023-02-15T13:16:44;95093.66;;;4.71
62930;BMP280;49036;42.782;23.108;2023-02-15T13:19:33;95086.97;;;4.67
62930;BMP280;49036;42.782;23.108;2023-02-15T13:22:02;95086.28;;;4.60
62930;BMP280;49036;42.782;23.108;2023-02-15T13:24:42;95083.22;;;4.45
62930;BMP280;49036;42.782;23.108;2023-02-15T13:27:14;95091.22;;;4.68
62930;BMP280;49036;42.782;23.108;2023-02-15T13:29:45;95082.41;;;4.50
62930;BMP280;49036;42.782;23.108;2023-02-15T13:34:44;95095.59;;;4.57
62930;BMP280;49036;42.782;23.108;2023-02-15T13:37:25;95096.16;;;4.50
62930;BMP280;49036;42.782;23.108;2023-02-15T13:39:58;95097.03;;;4.40
62930;BMP280;49036;42.782;23.108;2023-02-15T13:42:33;95095.53;;;4.39
62930;BMP280;49036;42.782;23.108;2023-02-15T13:51:10;95107.28;;;4.15
62930;BMP280;49036;42.782;23.108;2023-02-15T14:11:04;95114.41;;;3.74
62930;BMP280;49036;42.782;23.108;2023-02-15T14:20:17;95115.63;;;3.43
62930;BMP280;49036;42.782;23.108;2023-02-15T14:24:40;95118.94;;;3.31
62930;BMP280;49036;42.782;23.108;2023-02-15T14:30:30;95117.50;;;3.24
62930;BMP280;49036;42.782;23.108;2023-02-15T14:33:05;95116.19;;;3.36
62930;BMP280;49036;42.782;23.108;2023-02-15T14:35:31;95117.66;;;3.37
62930;BMP280;49036;42.782;23.108;2023-02-15T14:38:20;95118.13;;;3.41
62930;BMP280;49036;42.782;23.108;2023-02-15T14:46:50;95117.16;;;4.72
62930;BMP280;49036;42.782;23.108;2023-02-15T14:49:24;95107.94;;;5.07
62930;BMP280;49036;42.782;23.108;2023-02-15T14:56:41;95118.66;;;3.40
62930;BMP280;49036;42.782;23.108;2023-02-15T15:01:39;95124.69;;;2.86
62930;BMP280;49036;42.782;23.108;2023-02-15T15:04:12;95117.03;;;2.73
62930;BMP280;49036;42.782;23.108;2023-02-15T15:06:40;95120.03;;;2.64
62930;BMP280;49036;42.782;23.108;2023-02-15T15:11:44;95116.59;;;2.47
62930;BMP280;49036;42.782;23.108;2023-02-15T15:14:36;95114.38;;;2.40
62930;BMP280;49036;42.782;23.108;2023-02-15T15:16:56;95109.94;;;2.31
62930;BMP280;49036;42.782;23.108;2023-02-15T15:22:22;95107.22;;;2.14
62930;BMP280;49036;42.782;23.108;2023-02-15T15:24:58;95112.22;;;2.04
62930;BMP280;49036;42.782;23.108;2023-02-15T15:39:31;95129.38;;;1.49
62930;BMP280;49036;42.782;23.108;2023-02-15T15:42:01;95127.84;;;1.37
62930;BMP280;49036;42.782;23.108;2023-02-15T15:49:37;95125.75;;;0.81
62930;BMP280;49036;42.782;23.108;2023-02-15T15:52:21;95130.34;;;0.58
62930;BMP280;49036;42.782;23.108;2023-02-15T15:54:50;95128.00;;;0.40
62930;BMP280;49036;42.782;23.108;2023-02-15T15:57:34;95133.59;;;0.20
62930;BMP280;49036;42.782;23.108;2023-02-15T16:00:00;95139.97;;;0.05
62930;BMP280;49036;42.782;23.108;2023-02-15T16:02:26;95139.59;;;-0.08
62930;BMP280;49036;42.782;23.108;2023-02-15T16:04:52;95141.78;;;-0.12
62930;BMP280;49036;42.782;23.108;2023-02-15T16:10:05;95150.66;;;-0.17
62930;BMP280;49036;42.782;23.108;2023-02-15T16:12:33;95149.88;;;-0.23
62930;BMP280;49036;42.782;23.108;2023-02-15T16:17:48;95154.53;;;-0.29
62930;BMP280;49036;42.782;23.108;2023-02-15T16:20:21;95163.09;;;-0.42
62930;BMP280;49036;42.782;23.108;2023-02-15T16:22:47;95154.59;;;-0.50
62930;BMP280;49036;42.782;23.108;2023-02-15T16:27:52;95155.69;;;-0.88
62930;BMP280;49036;42.782;23.108;2023-02-15T16:30:31;95157.06;;;-0.98
62930;BMP280;49036;42.782;23.108;2023-02-15T16:33:07;95157.41;;;-1.11
62930;BMP280;49036;42.782;23.108;2023-02-15T16:35:33;95153.31;;;-1.21
62930;BMP280;49036;42.782;23.108;2023-02-15T16:37:59;95161.47;;;-1.21
62930;BMP280;49036;42.782;23.108;2023-02-15T16:42:59;95150.47;;;-1.32
62930;BMP280;49036;42.782;23.108;2023-02-15T16:45:27;95160.56;;;-1.33
62930;BMP280;49036;42.782;23.108;2023-02-15T16:47:56;95161.41;;;-1.27
62930;BMP280;49036;42.782;23.108;2023-02-15T16:50:40;95165.38;;;-1.28
62930;BMP280;49036;42.782;23.108;2023-02-15T16:53:18;95159.44;;;-1.26
62930;BMP280;49036;42.782;23.108;2023-02-15T16:55:49;95161.78;;;-1.19
62930;BMP280;49036;42.782;23.108;2023-02-15T16:58:16;95168.50;;;-1.14
62930;BMP280;49036;42.782;23.108;2023-02-15T17:00:43;95162.03;;;-1.17
62930;BMP280;49036;42.782;23.108;2023-02-15T17:05:44;95156.25;;;-1.04
62930;BMP280;49036;42.782;23.108;2023-02-15T17:08:17;95155.34;;;-0.75
62930;BMP280;49036;42.782;23.108;2023-02-15T17:11:00;95149.88;;;-0.49
62930;BMP280;49036;42.782;23.108;2023-02-15T17:13:27;95148.88;;;-0.52
62930;BMP280;49036;42.782;23.108;2023-02-15T17:18:26;95153.03;;;-0.56
62930;BMP280;49036;42.782;23.108;2023-02-15T17:20:54;95154.31;;;-0.52
62930;BMP280;49036;42.782;23.108;2023-02-15T17:23:34;95155.56;;;-0.53
62930;BMP280;49036;42.782;23.108;2023-02-15T17:26:10;95159.41;;;-0.39
62930;BMP280;49036;42.782;23.108;2023-02-15T17:28:37;95155.81;;;-0.25
62930;BMP280;49036;42.782;23.108;2023-02-15T17:31:06;95154.44;;;-0.14
62930;BMP280;49036;42.782;23.108;2023-02-15T17:36:09;95153.44;;;-0.11